Grizzly Air Cargo 5288


KDEN
Denver International Airport
Denver, Colorado, US
CYEG
Edmonton International Airport
Edmonton, , CA

Activity Log

Date Flight Route Aircraft Duration
12/23/2019 GRZ5288 RIKKK4 FISAR KU12U GGW YEA CAMRA IGSOX2 B738 2h 31m
09/24/2019 GRZ524 RIKKK4 FISAR KU12U GGW YEA CAMRA IGSOX2 B738 2h 50m

Route Details

Aircraft Information
Primary: Boeing 737-800BCF
Backup: Boeing 727-200F
Route Data
Distance: 887nm
Sched. Duration: 2h 58m
Avg. Duration: 2h 41m (-18m)
Times Flown: 2
Recm'd Route: RIKKK4 FISAR KU12U GGW YEA CAMRA IGSOX2
Planned Altitude: 34,000ft
Origin Wx: KDEN 271053Z 28013KT 10SM FEW080 BKN095 02/M09 A3011 RMK AO2 SLP191 T00221089
Dest. Wx: CYEG 271100Z 19008KT 20SM BKN080 OVC100 M02/M07 A2996 RMK AC5AC3 VIRGA ALQDS SLP179
Notes:

Financial History
Total Freight: 54,912lbs
Average Load: 27,456lbs/flt
Fuel Used: 26,477lbs
Avg. Fuel Used: 13,239lbs/flt
Fuel Expense: $28,595
Avg. Fuel Expense: $14,298
Avg. Fuel Cost: $1.08/lbs
Total Gross Income: $81,639
Pilot Pay: $308
Total Expenses: $8,921
Total Revenue: $43,288
Average Revenue: $40,819.68